sensor_id;sensor_type;location;lat;lon;timestamp;P1;durP1;ratioP1;P2;durP2;ratioP2
77350;SDS011;66420;50.246;14.320;2023-09-19T00:02:35;3.10;;;1.20;;
77350;SDS011;66420;50.246;14.320;2023-09-19T00:05:21;3.83;;;1.20;;
77350;SDS011;66420;50.246;14.320;2023-09-19T00:08:11;2.47;;;1.23;;
77350;SDS011;66420;50.246;14.320;2023-09-19T00:10:59;2.55;;;1.10;;
77350;SDS011;66420;50.246;14.320;2023-09-19T00:13:49;4.68;;;1.50;;
77350;SDS011;66420;50.246;14.320;2023-09-19T00:16:35;4.50;;;1.70;;
77350;SDS011;66420;50.246;14.320;2023-09-19T00:19:20;2.50;;;1.45;;
77350;SDS011;66420;50.246;14.320;2023-09-19T00:22:05;3.90;;;1.48;;
77350;SDS011;66420;50.246;14.320;2023-09-19T00:24:50;3.40;;;1.38;;
77350;SDS011;66420;50.246;14.320;2023-09-19T00:27:36;3.80;;;1.60;;
77350;SDS011;66420;50.246;14.320;2023-09-19T00:30:25;4.72;;;1.70;;
77350;SDS011;66420;50.246;14.320;2023-09-19T00:33:11;3.53;;;1.30;;
77350;SDS011;66420;50.246;14.320;2023-09-19T00:36:00;3.50;;;1.63;;
77350;SDS011;66420;50.246;14.320;2023-09-19T00:38:48;2.75;;;1.88;;
77350;SDS011;66420;50.246;14.320;2023-09-19T00:41:32;3.05;;;1.25;;
77350;SDS011;66420;50.246;14.320;2023-09-19T00:44:20;2.78;;;1.30;;
77350;SDS011;66420;50.246;14.320;2023-09-19T00:47:07;3.13;;;1.50;;
77350;SDS011;66420;50.246;14.320;2023-09-19T00:49:53;2.75;;;1.30;;
77350;SDS011;66420;50.246;14.320;2023-09-19T00:52:38;2.80;;;1.33;;
77350;SDS011;66420;50.246;14.320;2023-09-19T00:55:23;2.35;;;1.23;;
77350;SDS011;66420;50.246;14.320;2023-09-19T00:58:10;2.13;;;1.42;;
77350;SDS011;66420;50.246;14.320;2023-09-19T01:00:55;3.75;;;1.10;;
77350;SDS011;66420;50.246;14.320;2023-09-19T01:03:43;4.68;;;1.20;;
77350;SDS011;66420;50.246;14.320;2023-09-19T01:06:28;3.78;;;1.40;;
77350;SDS011;66420;50.246;14.320;2023-09-19T01:09:15;2.88;;;1.15;;
77350;SDS011;66420;50.246;14.320;2023-09-19T01:12:02;3.05;;;1.10;;
77350;SDS011;66420;50.246;14.320;2023-09-19T01:14:54;3.47;;;1.40;;
77350;SDS011;66420;50.246;14.320;2023-09-19T01:30:31;2.60;;;1.30;;
77350;SDS011;66420;50.246;14.320;2023-09-19T01:33:20;5.43;;;1.30;;
77350;SDS011;66420;50.246;14.320;2023-09-19T01:36:05;4.57;;;1.40;;
77350;SDS011;66420;50.246;14.320;2023-09-19T01:38:50;2.15;;;1.13;;
77350;SDS011;66420;50.246;14.320;2023-09-19T01:50:41;3.45;;;1.30;;
77350;SDS011;66420;50.246;14.320;2023-09-19T01:59:24;3.40;;;1.17;;
77350;SDS011;66420;50.246;14.320;2023-09-19T02:02:12;2.75;;;1.13;;
77350;SDS011;66420;50.246;14.320;2023-09-19T02:04:59;3.70;;;1.10;;
77350;SDS011;66420;50.246;14.320;2023-09-19T02:07:43;2.40;;;1.10;;
77350;SDS011;66420;50.246;14.320;2023-09-19T02:10:29;4.78;;;1.40;;
77350;SDS011;66420;50.246;14.320;2023-09-19T02:13:20;3.40;;;1.42;;
77350;SDS011;66420;50.246;14.320;2023-09-19T02:16:12;3.75;;;1.20;;
77350;SDS011;66420;50.246;14.320;2023-09-19T02:18:57;2.80;;;1.40;;
77350;SDS011;66420;50.246;14.320;2023-09-19T02:21:41;3.60;;;1.42;;
77350;SDS011;66420;50.246;14.320;2023-09-19T02:24:26;3.78;;;1.63;;
77350;SDS011;66420;50.246;14.320;2023-09-19T02:27:11;3.53;;;1.20;;
77350;SDS011;66420;50.246;14.320;2023-09-19T02:29:58;3.13;;;1.50;;
77350;SDS011;66420;50.246;14.320;2023-09-19T02:32:43;2.90;;;1.30;;
77350;SDS011;66420;50.246;14.320;2023-09-19T02:35:28;4.43;;;1.13;;
77350;SDS011;66420;50.246;14.320;2023-09-19T02:38:15;3.00;;;1.10;;
77350;SDS011;66420;50.246;14.320;2023-09-19T02:41:02;2.42;;;1.25;;
77350;SDS011;66420;50.246;14.320;2023-09-19T02:43:47;3.95;;;1.48;;
77350;SDS011;66420;50.246;14.320;2023-09-19T02:46:32;3.65;;;1.13;;
77350;SDS011;66420;50.246;14.320;2023-09-19T02:49:17;3.00;;;1.40;;
77350;SDS011;66420;50.246;14.320;2023-09-19T02:52:02;4.35;;;1.40;;
77350;SDS011;66420;50.246;14.320;2023-09-19T02:54:48;3.78;;;1.45;;
77350;SDS011;66420;50.246;14.320;2023-09-19T02:57:33;2.05;;;1.02;;
77350;SDS011;66420;50.246;14.320;2023-09-19T03:00:19;4.50;;;1.20;;
77350;SDS011;66420;50.246;14.320;2023-09-19T03:03:06;4.50;;;1.30;;
77350;SDS011;66420;50.246;14.320;2023-09-19T03:05:52;2.50;;;1.13;;
77350;SDS011;66420;50.246;14.320;2023-09-19T03:08:37;2.78;;;1.30;;
77350;SDS011;66420;50.246;14.320;2023-09-19T03:11:23;2.65;;;1.33;;
77350;SDS011;66420;50.246;14.320;2023-09-19T03:14:09;3.17;;;1.40;;
77350;SDS011;66420;50.246;14.320;2023-09-19T03:16:54;3.03;;;1.88;;
77350;SDS011;66420;50.246;14.320;2023-09-19T03:19:40;5.72;;;2.63;;
77350;SDS011;66420;50.246;14.320;2023-09-19T03:22:25;4.03;;;1.60;;
77350;SDS011;66420;50.246;14.320;2023-09-19T03:25:13;2.28;;;1.27;;
77350;SDS011;66420;50.246;14.320;2023-09-19T03:27:58;3.97;;;1.63;;
77350;SDS011;66420;50.246;14.320;2023-09-19T03:30:44;5.00;;;1.55;;
77350;SDS011;66420;50.246;14.320;2023-09-19T03:33:28;2.85;;;1.60;;
77350;SDS011;66420;50.246;14.320;2023-09-19T03:36:16;5.75;;;2.00;;
77350;SDS011;66420;50.246;14.320;2023-09-19T03:39:01;4.65;;;1.75;;
77350;SDS011;66420;50.246;14.320;2023-09-19T03:41:49;4.43;;;1.80;;
77350;SDS011;66420;50.246;14.320;2023-09-19T03:44:34;3.75;;;1.80;;
77350;SDS011;66420;50.246;14.320;2023-09-19T03:47:18;5.25;;;2.17;;
77350;SDS011;66420;50.246;14.320;2023-09-19T03:50:06;3.17;;;1.80;;
77350;SDS011;66420;50.246;14.320;2023-09-19T03:52:59;4.30;;;1.77;;
77350;SDS011;66420;50.246;14.320;2023-09-19T03:55:44;3.08;;;1.60;;
77350;SDS011;66420;50.246;14.320;2023-09-19T03:58:30;4.30;;;1.85;;
77350;SDS011;66420;50.246;14.320;2023-09-19T04:01:15;2.95;;;1.60;;
77350;SDS011;66420;50.246;14.320;2023-09-19T04:04:01;4.20;;;1.60;;
77350;SDS011;66420;50.246;14.320;2023-09-19T04:06:52;4.35;;;2.25;;
77350;SDS011;66420;50.246;14.320;2023-09-19T04:09:37;3.55;;;2.20;;
77350;SDS011;66420;50.246;14.320;2023-09-19T04:12:22;3.33;;;2.10;;
77350;SDS011;66420;50.246;14.320;2023-09-19T04:15:07;3.65;;;2.00;;
77350;SDS011;66420;50.246;14.320;2023-09-19T04:17:52;5.82;;;2.35;;
77350;SDS011;66420;50.246;14.320;2023-09-19T04:20:38;3.10;;;2.30;;
77350;SDS011;66420;50.246;14.320;2023-09-19T04:23:23;3.08;;;2.20;;
77350;SDS011;66420;50.246;14.320;2023-09-19T04:26:08;4.78;;;2.13;;
77350;SDS011;66420;50.246;14.320;2023-09-19T04:28:53;3.80;;;2.03;;
77350;SDS011;66420;50.246;14.320;2023-09-19T04:31:38;4.35;;;2.00;;
77350;SDS011;66420;50.246;14.320;2023-09-19T04:34:24;4.80;;;2.60;;
77350;SDS011;66420;50.246;14.320;2023-09-19T04:37:09;4.72;;;2.65;;
77350;SDS011;66420;50.246;14.320;2023-09-19T04:39:55;6.50;;;2.53;;
77350;SDS011;66420;50.246;14.320;2023-09-19T04:42:40;3.95;;;2.45;;
77350;SDS011;66420;50.246;14.320;2023-09-19T04:45:26;6.68;;;2.20;;
77350;SDS011;66420;50.246;14.320;2023-09-19T04:48:12;4.10;;;2.28;;
77350;SDS011;66420;50.246;14.320;2023-09-19T04:50:58;4.63;;;2.40;;
77350;SDS011;66420;50.246;14.320;2023-09-19T04:53:44;3.97;;;2.30;;
77350;SDS011;66420;50.246;14.320;2023-09-19T04:56:28;5.72;;;2.15;;
77350;SDS011;66420;50.246;14.320;2023-09-19T04:59:13;3.95;;;2.55;;
77350;SDS011;66420;50.246;14.320;2023-09-19T05:01:59;3.50;;;2.03;;
77350;SDS011;66420;50.246;14.320;2023-09-19T05:04:44;5.13;;;2.40;;
77350;SDS011;66420;50.246;14.320;2023-09-19T05:07:29;5.28;;;2.35;;
77350;SDS011;66420;50.246;14.320;2023-09-19T05:10:14;7.45;;;2.25;;
77350;SDS011;66420;50.246;14.320;2023-09-19T05:13:03;4.55;;;2.58;;
77350;SDS011;66420;50.246;14.320;2023-09-19T05:15:49;6.90;;;2.58;;
77350;SDS011;66420;50.246;14.320;2023-09-19T05:18:34;3.83;;;2.30;;
77350;SDS011;66420;50.246;14.320;2023-09-19T05:21:18;6.95;;;2.05;;
77350;SDS011;66420;50.246;14.320;2023-09-19T05:24:05;6.30;;;2.10;;
77350;SDS011;66420;50.246;14.320;2023-09-19T05:26:50;5.13;;;2.47;;
77350;SDS011;66420;50.246;14.320;2023-09-19T05:29:35;5.72;;;2.67;;
77350;SDS011;66420;50.246;14.320;2023-09-19T05:32:20;4.90;;;2.20;;
77350;SDS011;66420;50.246;14.320;2023-09-19T05:35:05;4.43;;;2.10;;
77350;SDS011;66420;50.246;14.320;2023-09-19T05:37:54;4.03;;;2.28;;
77350;SDS011;66420;50.246;14.320;2023-09-19T05:40:40;7.13;;;2.08;;
77350;SDS011;66420;50.246;14.320;2023-09-19T05:43:28;4.75;;;2.15;;
77350;SDS011;66420;50.246;14.320;2023-09-19T05:46:12;4.53;;;2.17;;
77350;SDS011;66420;50.246;14.320;2023-09-19T05:49:00;9.48;;;2.65;;
77350;SDS011;66420;50.246;14.320;2023-09-19T05:51:44;7.10;;;2.30;;
77350;SDS011;66420;50.246;14.320;2023-09-19T05:54:30;8.43;;;1.90;;
77350;SDS011;66420;50.246;14.320;2023-09-19T05:57:14;5.28;;;2.03;;
77350;SDS011;66420;50.246;14.320;2023-09-19T06:00:00;5.03;;;2.33;;
77350;SDS011;66420;50.246;14.320;2023-09-19T06:05:21;3.63;;;1.75;;
77350;SDS011;66420;50.246;14.320;2023-09-19T06:08:06;4.07;;;1.80;;
77350;SDS011;66420;50.246;14.320;2023-09-19T06:10:52;4.65;;;1.83;;
77350;SDS011;66420;50.246;14.320;2023-09-19T06:13:36;6.55;;;2.05;;
77350;SDS011;66420;50.246;14.320;2023-09-19T06:16:23;3.33;;;1.90;;
77350;SDS011;66420;50.246;14.320;2023-09-19T06:19:08;5.57;;;2.22;;
77350;SDS011;66420;50.246;14.320;2023-09-19T06:21:54;4.38;;;1.77;;
77350;SDS011;66420;50.246;14.320;2023-09-19T06:24:38;4.07;;;1.60;;
77350;SDS011;66420;50.246;14.320;2023-09-19T06:27:23;3.55;;;1.60;;
77350;SDS011;66420;50.246;14.320;2023-09-19T06:30:08;4.97;;;1.83;;
77350;SDS011;66420;50.246;14.320;2023-09-19T06:32:58;6.25;;;1.80;;
77350;SDS011;66420;50.246;14.320;2023-09-19T06:35:44;3.65;;;1.75;;
77350;SDS011;66420;50.246;14.320;2023-09-19T06:38:31;6.47;;;2.20;;
77350;SDS011;66420;50.246;14.320;2023-09-19T06:41:18;4.78;;;1.60;;
77350;SDS011;66420;50.246;14.320;2023-09-19T06:44:03;4.15;;;1.63;;
77350;SDS011;66420;50.246;14.320;2023-09-19T06:46:49;4.80;;;1.77;;
77350;SDS011;66420;50.246;14.320;2023-09-19T06:49:36;2.97;;;1.73;;
77350;SDS011;66420;50.246;14.320;2023-09-19T06:52:21;3.17;;;1.55;;
77350;SDS011;66420;50.246;14.320;2023-09-19T06:55:06;6.43;;;1.70;;
77350;SDS011;66420;50.246;14.320;2023-09-19T06:57:51;2.65;;;1.70;;
77350;SDS011;66420;50.246;14.320;2023-09-19T07:00:38;4.07;;;1.48;;
77350;SDS011;66420;50.246;14.320;2023-09-19T07:03:23;2.75;;;1.63;;
77350;SDS011;66420;50.246;14.320;2023-09-19T07:06:10;4.22;;;1.40;;
77350;SDS011;66420;50.246;14.320;2023-09-19T07:08:55;3.92;;;1.83;;
77350;SDS011;66420;50.246;14.320;2023-09-19T07:11:40;6.57;;;2.03;;
77350;SDS011;66420;50.246;14.320;2023-09-19T07:14:25;6.53;;;2.40;;
77350;SDS011;66420;50.246;14.320;2023-09-19T07:17:10;4.97;;;2.10;;
77350;SDS011;66420;50.246;14.320;2023-09-19T07:19:56;4.72;;;1.98;;
77350;SDS011;66420;50.246;14.320;2023-09-19T07:22:42;6.47;;;2.15;;
77350;SDS011;66420;50.246;14.320;2023-09-19T07:25:27;2.90;;;1.60;;
77350;SDS011;66420;50.246;14.320;2023-09-19T07:28:12;3.72;;;1.80;;
77350;SDS011;66420;50.246;14.320;2023-09-19T07:30:57;3.40;;;1.40;;
77350;SDS011;66420;50.246;14.320;2023-09-19T07:33:48;3.55;;;1.98;;
77350;SDS011;66420;50.246;14.320;2023-09-19T07:36:33;2.80;;;1.35;;
77350;SDS011;66420;50.246;14.320;2023-09-19T07:39:18;2.55;;;1.40;;
77350;SDS011;66420;50.246;14.320;2023-09-19T07:42:04;2.55;;;1.40;;
77350;SDS011;66420;50.246;14.320;2023-09-19T07:44:51;3.22;;;1.40;;
77350;SDS011;66420;50.246;14.320;2023-09-19T07:47:38;5.10;;;1.40;;
77350;SDS011;66420;50.246;14.320;2023-09-19T07:50:23;3.45;;;1.85;;
77350;SDS011;66420;50.246;14.320;2023-09-19T07:53:07;3.95;;;1.50;;
77350;SDS011;66420;50.246;14.320;2023-09-19T07:55:52;3.20;;;1.48;;
77350;SDS011;66420;50.246;14.320;2023-09-19T07:58:40;2.45;;;1.42;;
77350;SDS011;66420;50.246;14.320;2023-09-19T08:01:26;2.53;;;1.38;;
77350;SDS011;66420;50.246;14.320;2023-09-19T08:04:12;3.88;;;1.40;;
77350;SDS011;66420;50.246;14.320;2023-09-19T08:06:56;3.35;;;1.50;;
77350;SDS011;66420;50.246;14.320;2023-09-19T08:09:44;2.67;;;1.30;;
77350;SDS011;66420;50.246;14.320;2023-09-19T08:12:32;6.68;;;1.30;;
77350;SDS011;66420;50.246;14.320;2023-09-19T08:15:20;3.28;;;1.50;;
77350;SDS011;66420;50.246;14.320;2023-09-19T08:18:04;3.28;;;1.23;;
77350;SDS011;66420;50.246;14.320;2023-09-19T08:20:50;3.53;;;1.20;;
77350;SDS011;66420;50.246;14.320;2023-09-19T08:23:36;5.07;;;1.40;;
77350;SDS011;66420;50.246;14.320;2023-09-19T08:26:23;1.88;;;0.93;;
77350;SDS011;66420;50.246;14.320;2023-09-19T08:29:09;3.22;;;1.42;;
77350;SDS011;66420;50.246;14.320;2023-09-19T08:31:57;2.35;;;1.35;;
77350;SDS011;66420;50.246;14.320;2023-09-19T08:34:42;2.78;;;1.30;;
77350;SDS011;66420;50.246;14.320;2023-09-19T08:37:27;3.20;;;1.35;;
77350;SDS011;66420;50.246;14.320;2023-09-19T08:40:12;4.30;;;1.55;;
77350;SDS011;66420;50.246;14.320;2023-09-19T08:42:58;3.25;;;1.63;;
77350;SDS011;66420;50.246;14.320;2023-09-19T08:45:43;2.50;;;1.27;;
77350;SDS011;66420;50.246;14.320;2023-09-19T08:48:27;3.53;;;1.42;;
77350;SDS011;66420;50.246;14.320;2023-09-19T08:51:57;2.78;;;1.25;;
77350;SDS011;66420;50.246;14.320;2023-09-19T08:54:32;3.85;;;1.45;;
77350;SDS011;66420;50.246;14.320;2023-09-19T08:57:23;4.70;;;1.58;;
77350;SDS011;66420;50.246;14.320;2023-09-19T09:00:13;3.65;;;1.10;;
77350;SDS011;66420;50.246;14.320;2023-09-19T09:03:01;2.72;;;1.35;;
77350;SDS011;66420;50.246;14.320;2023-09-19T09:05:48;4.30;;;1.27;;
77350;SDS011;66420;50.246;14.320;2023-09-19T09:08:35;4.30;;;1.17;;
77350;SDS011;66420;50.246;14.320;2023-09-19T09:11:22;2.65;;;1.23;;
77350;SDS011;66420;50.246;14.320;2023-09-19T09:14:09;3.40;;;0.98;;
77350;SDS011;66420;50.246;14.320;2023-09-19T09:16:53;2.92;;;1.40;;
77350;SDS011;66420;50.246;14.320;2023-09-19T09:19:43;6.97;;;1.70;;
77350;SDS011;66420;50.246;14.320;2023-09-19T09:22:27;4.45;;;1.30;;
77350;SDS011;66420;50.246;14.320;2023-09-19T09:25:12;5.38;;;1.35;;
77350;SDS011;66420;50.246;14.320;2023-09-19T09:28:01;5.72;;;1.50;;
77350;SDS011;66420;50.246;14.320;2023-09-19T09:30:46;3.45;;;1.10;;
77350;SDS011;66420;50.246;14.320;2023-09-19T09:33:32;2.25;;;1.20;;
77350;SDS011;66420;50.246;14.320;2023-09-19T09:36:17;2.88;;;1.23;;
77350;SDS011;66420;50.246;14.320;2023-09-19T09:39:30;2.58;;;1.15;;
77350;SDS011;66420;50.246;14.320;2023-09-19T09:42:29;2.00;;;1.08;;
77350;SDS011;66420;50.246;14.320;2023-09-19T09:45:20;3.17;;;1.30;;
77350;SDS011;66420;50.246;14.320;2023-09-19T09:48:21;3.58;;;1.00;;
77350;SDS011;66420;50.246;14.320;2023-09-19T09:51:16;3.45;;;1.23;;
77350;SDS011;66420;50.246;14.320;2023-09-19T09:54:15;1.90;;;1.05;;
77350;SDS011;66420;50.246;14.320;2023-09-19T09:57:03;2.13;;;1.13;;
77350;SDS011;66420;50.246;14.320;2023-09-19T09:59:58;2.88;;;1.15;;
77350;SDS011;66420;50.246;14.320;2023-09-19T10:02:56;2.63;;;1.00;;
77350;SDS011;66420;50.246;14.320;2023-09-19T10:05:44;2.72;;;1.00;;
77350;SDS011;66420;50.246;14.320;2023-09-19T10:08:28;3.47;;;1.10;;
77350;SDS011;66420;50.246;14.320;2023-09-19T10:11:15;2.42;;;1.17;;
77350;SDS011;66420;50.246;14.320;2023-09-19T10:14:01;2.72;;;1.10;;
77350;SDS011;66420;50.246;14.320;2023-09-19T10:16:51;2.33;;;1.15;;
77350;SDS011;66420;50.246;14.320;2023-09-19T10:19:54;2.03;;;1.00;;
77350;SDS011;66420;50.246;14.320;2023-09-19T10:22:42;2.50;;;1.15;;
77350;SDS011;66420;50.246;14.320;2023-09-19T10:25:28;1.95;;;1.10;;
77350;SDS011;66420;50.246;14.320;2023-09-19T10:28:13;3.08;;;1.13;;
77350;SDS011;66420;50.246;14.320;2023-09-19T10:30:59;2.97;;;1.10;;
77350;SDS011;66420;50.246;14.320;2023-09-19T10:33:45;2.78;;;1.15;;
77350;SDS011;66420;50.246;14.320;2023-09-19T10:36:33;6.40;;;1.35;;
77350;SDS011;66420;50.246;14.320;2023-09-19T10:39:20;2.95;;;1.33;;
77350;SDS011;66420;50.246;14.320;2023-09-19T10:42:05;2.40;;;1.40;;
77350;SDS011;66420;50.246;14.320;2023-09-19T10:44:53;2.95;;;1.30;;
77350;SDS011;66420;50.246;14.320;2023-09-19T10:47:39;2.40;;;1.05;;
77350;SDS011;66420;50.246;14.320;2023-09-19T10:50:24;2.75;;;1.25;;
77350;SDS011;66420;50.246;14.320;2023-09-19T10:53:16;3.20;;;1.10;;
77350;SDS011;66420;50.246;14.320;2023-09-19T10:56:01;2.60;;;1.27;;
77350;SDS011;66420;50.246;14.320;2023-09-19T11:01:52;5.72;;;1.30;;
77350;SDS011;66420;50.246;14.320;2023-09-19T11:04:41;2.35;;;1.10;;
77350;SDS011;66420;50.246;14.320;2023-09-19T11:07:26;2.60;;;1.10;;
77350;SDS011;66420;50.246;14.320;2023-09-19T11:10:43;2.65;;;1.10;;
77350;SDS011;66420;50.246;14.320;2023-09-19T11:13:34;1.83;;;1.00;;
77350;SDS011;66420;50.246;14.320;2023-09-19T11:16:21;2.80;;;1.00;;
77350;SDS011;66420;50.246;14.320;2023-09-19T11:19:08;2.13;;;1.00;;
77350;SDS011;66420;50.246;14.320;2023-09-19T11:21:55;2.08;;;1.02;;
77350;SDS011;66420;50.246;14.320;2023-09-19T11:24:40;3.92;;;1.08;;
77350;SDS011;66420;50.246;14.320;2023-09-19T11:27:26;2.08;;;1.10;;
77350;SDS011;66420;50.246;14.320;2023-09-19T11:30:27;3.30;;;1.15;;
77350;SDS011;66420;50.246;14.320;2023-09-19T11:33:18;2.13;;;0.88;;
77350;SDS011;66420;50.246;14.320;2023-09-19T11:36:14;3.70;;;1.00;;
77350;SDS011;66420;50.246;14.320;2023-09-19T11:39:18;1.70;;;0.80;;
77350;SDS011;66420;50.246;14.320;2023-09-19T11:48:41;1.77;;;0.90;;
77350;SDS011;66420;50.246;14.320;2023-09-19T11:51:28;1.83;;;0.90;;
77350;SDS011;66420;50.246;14.320;2023-09-19T11:54:27;1.95;;;1.00;;
77350;SDS011;66420;50.246;14.320;2023-09-19T11:57:20;3.83;;;1.00;;
77350;SDS011;66420;50.246;14.320;2023-09-19T12:00:06;2.78;;;0.90;;
77350;SDS011;66420;50.246;14.320;2023-09-19T12:02:55;1.67;;;0.70;;
77350;SDS011;66420;50.246;14.320;2023-09-19T12:05:45;1.63;;;0.68;;
77350;SDS011;66420;50.246;14.320;2023-09-19T12:08:32;1.77;;;0.80;;
77350;SDS011;66420;50.246;14.320;2023-09-19T12:11:18;1.52;;;0.80;;
77350;SDS011;66420;50.246;14.320;2023-09-19T12:14:04;1.50;;;0.80;;
77350;SDS011;66420;50.246;14.320;2023-09-19T12:16:57;1.23;;;0.70;;
77350;SDS011;66420;50.246;14.320;2023-09-19T12:19:49;2.10;;;1.00;;
77350;SDS011;66420;50.246;14.320;2023-09-19T12:22:39;1.40;;;0.65;;
77350;SDS011;66420;50.246;14.320;2023-09-19T12:25:43;2.45;;;0.75;;
77350;SDS011;66420;50.246;14.320;2023-09-19T12:28:31;2.42;;;0.90;;
77350;SDS011;66420;50.246;14.320;2023-09-19T12:31:26;1.95;;;0.90;;
77350;SDS011;66420;50.246;14.320;2023-09-19T12:34:11;1.38;;;0.80;;
77350;SDS011;66420;50.246;14.320;2023-09-19T12:37:07;2.13;;;0.80;;
77350;SDS011;66420;50.246;14.320;2023-09-19T12:40:11;1.63;;;0.80;;
77350;SDS011;66420;50.246;14.320;2023-09-19T12:43:06;1.60;;;0.93;;
77350;SDS011;66420;50.246;14.320;2023-09-19T12:45:53;2.72;;;1.00;;
77350;SDS011;66420;50.246;14.320;2023-09-19T12:48:38;1.83;;;0.90;;
77350;SDS011;66420;50.246;14.320;2023-09-19T12:51:34;2.28;;;1.02;;
77350;SDS011;66420;50.246;14.320;2023-09-19T12:54:20;2.10;;;1.08;;
77350;SDS011;66420;50.246;14.320;2023-09-19T12:57:06;2.22;;;1.30;;
77350;SDS011;66420;50.246;14.320;2023-09-19T12:59:52;2.20;;;0.80;;
77350;SDS011;66420;50.246;14.320;2023-09-19T13:02:37;3.05;;;1.20;;
77350;SDS011;66420;50.246;14.320;2023-09-19T13:05:22;2.45;;;1.13;;
77350;SDS011;66420;50.246;14.320;2023-09-19T13:08:44;1.90;;;0.90;;
77350;SDS011;66420;50.246;14.320;2023-09-19T13:11:36;1.45;;;0.90;;
77350;SDS011;66420;50.246;14.320;2023-09-19T13:14:25;3.53;;;1.10;;
77350;SDS011;66420;50.246;14.320;2023-09-19T13:17:24;1.80;;;1.00;;
77350;SDS011;66420;50.246;14.320;2023-09-19T13:20:23;1.63;;;0.90;;
77350;SDS011;66420;50.246;14.320;2023-09-19T13:23:25;1.55;;;0.90;;
77350;SDS011;66420;50.246;14.320;2023-09-19T13:26:11;1.88;;;1.00;;
77350;SDS011;66420;50.246;14.320;2023-09-19T13:28:56;2.10;;;1.10;;
77350;SDS011;66420;50.246;14.320;2023-09-19T13:31:42;1.58;;;0.80;;
77350;SDS011;66420;50.246;14.320;2023-09-19T13:34:29;1.70;;;0.80;;
77350;SDS011;66420;50.246;14.320;2023-09-19T13:37:15;3.03;;;0.90;;
77350;SDS011;66420;50.246;14.320;2023-09-19T13:40:01;2.38;;;1.13;;
77350;SDS011;66420;50.246;14.320;2023-09-19T13:42:49;3.45;;;1.20;;
77350;SDS011;66420;50.246;14.320;2023-09-19T13:45:37;3.97;;;1.10;;
77350;SDS011;66420;50.246;14.320;2023-09-19T13:48:21;3.47;;;1.13;;
77350;SDS011;66420;50.246;14.320;2023-09-19T13:51:08;2.33;;;0.95;;
77350;SDS011;66420;50.246;14.320;2023-09-19T13:53:52;2.10;;;1.00;;
77350;SDS011;66420;50.246;14.320;2023-09-19T13:56:38;4.70;;;2.08;;
77350;SDS011;66420;50.246;14.320;2023-09-19T13:59:23;4.20;;;1.80;;
77350;SDS011;66420;50.246;14.320;2023-09-19T14:02:08;3.30;;;1.33;;
77350;SDS011;66420;50.246;14.320;2023-09-19T14:04:53;2.90;;;0.82;;
77350;SDS011;66420;50.246;14.320;2023-09-19T14:07:39;1.70;;;1.00;;
77350;SDS011;66420;50.246;14.320;2023-09-19T14:10:25;4.15;;;0.90;;
77350;SDS011;66420;50.246;14.320;2023-09-19T14:13:11;2.72;;;0.85;;
77350;SDS011;66420;50.246;14.320;2023-09-19T14:16:02;1.70;;;0.90;;
77350;SDS011;66420;50.246;14.320;2023-09-19T14:18:49;1.98;;;0.93;;
77350;SDS011;66420;50.246;14.320;2023-09-19T14:21:34;2.20;;;1.05;;
77350;SDS011;66420;50.246;14.320;2023-09-19T14:24:21;4.63;;;0.95;;
77350;SDS011;66420;50.246;14.320;2023-09-19T14:27:06;2.53;;;0.95;;
77350;SDS011;66420;50.246;14.320;2023-09-19T14:29:53;8.65;;;1.13;;
77350;SDS011;66420;50.246;14.320;2023-09-19T14:32:37;2.20;;;0.80;;
77350;SDS011;66420;50.246;14.320;2023-09-19T14:35:23;2.10;;;1.00;;
77350;SDS011;66420;50.246;14.320;2023-09-19T14:38:08;1.88;;;0.93;;
77350;SDS011;66420;50.246;14.320;2023-09-19T14:41:00;1.75;;;1.00;;
77350;SDS011;66420;50.246;14.320;2023-09-19T14:43:46;1.75;;;0.90;;
77350;SDS011;66420;50.246;14.320;2023-09-19T14:46:31;5.97;;;1.10;;
77350;SDS011;66420;50.246;14.320;2023-09-19T14:49:15;2.72;;;1.02;;
77350;SDS011;66420;50.246;14.320;2023-09-19T14:52:01;1.95;;;0.90;;
77350;SDS011;66420;50.246;14.320;2023-09-19T14:54:48;1.90;;;0.90;;
77350;SDS011;66420;50.246;14.320;2023-09-19T14:57:33;2.08;;;1.00;;
77350;SDS011;66420;50.246;14.320;2023-09-19T15:00:17;1.80;;;1.10;;
77350;SDS011;66420;50.246;14.320;2023-09-19T15:03:04;3.03;;;1.13;;
77350;SDS011;66420;50.246;14.320;2023-09-19T15:05:50;1.83;;;0.95;;
77350;SDS011;66420;50.246;14.320;2023-09-19T15:08:43;2.53;;;0.90;;
77350;SDS011;66420;50.246;14.320;2023-09-19T15:11:32;2.58;;;1.00;;
77350;SDS011;66420;50.246;14.320;2023-09-19T15:14:17;2.67;;;1.10;;
77350;SDS011;66420;50.246;14.320;2023-09-19T15:17:02;2.97;;;1.00;;
77350;SDS011;66420;50.246;14.320;2023-09-19T15:19:49;2.30;;;1.20;;
77350;SDS011;66420;50.246;14.320;2023-09-19T15:22:34;3.63;;;1.15;;
77350;SDS011;66420;50.246;14.320;2023-09-19T15:25:19;2.33;;;0.93;;
77350;SDS011;66420;50.246;14.320;2023-09-19T15:28:05;2.33;;;1.08;;
77350;SDS011;66420;50.246;14.320;2023-09-19T15:30:59;2.45;;;1.20;;
77350;SDS011;66420;50.246;14.320;2023-09-19T15:33:45;3.05;;;1.10;;
77350;SDS011;66420;50.246;14.320;2023-09-19T15:36:30;3.45;;;1.38;;
77350;SDS011;66420;50.246;14.320;2023-09-19T15:39:14;2.13;;;1.08;;
77350;SDS011;66420;50.246;14.320;2023-09-19T15:42:00;2.15;;;1.30;;
77350;SDS011;66420;50.246;14.320;2023-09-19T15:44:46;1.73;;;1.00;;
77350;SDS011;66420;50.246;14.320;2023-09-19T15:47:32;4.43;;;1.10;;
77350;SDS011;66420;50.246;14.320;2023-09-19T15:50:18;4.05;;;1.33;;
77350;SDS011;66420;50.246;14.320;2023-09-19T15:53:03;2.75;;;1.17;;
77350;SDS011;66420;50.246;14.320;2023-09-19T15:55:48;2.75;;;1.20;;
77350;SDS011;66420;50.246;14.320;2023-09-19T15:58:33;3.53;;;1.38;;
77350;SDS011;66420;50.246;14.320;2023-09-19T16:01:18;3.00;;;1.30;;
77350;SDS011;66420;50.246;14.320;2023-09-19T16:04:04;2.75;;;1.23;;
77350;SDS011;66420;50.246;14.320;2023-09-19T16:06:50;4.38;;;1.40;;
77350;SDS011;66420;50.246;14.320;2023-09-19T16:09:36;3.67;;;1.20;;
77350;SDS011;66420;50.246;14.320;2023-09-19T16:12:21;2.40;;;1.25;;
77350;SDS011;66420;50.246;14.320;2023-09-19T16:15:06;1.85;;;0.95;;
77350;SDS011;66420;50.246;14.320;2023-09-19T16:17:55;3.55;;;1.15;;
77350;SDS011;66420;50.246;14.320;2023-09-19T16:20:40;4.43;;;1.40;;
77350;SDS011;66420;50.246;14.320;2023-09-19T16:23:25;3.17;;;1.45;;
77350;SDS011;66420;50.246;14.320;2023-09-19T16:26:10;2.72;;;1.00;;
77350;SDS011;66420;50.246;14.320;2023-09-19T16:28:57;3.03;;;1.15;;
77350;SDS011;66420;50.246;14.320;2023-09-19T16:31:46;3.72;;;1.17;;
77350;SDS011;66420;50.246;14.320;2023-09-19T16:34:31;3.03;;;1.25;;
77350;SDS011;66420;50.246;14.320;2023-09-19T16:37:16;2.75;;;1.20;;
77350;SDS011;66420;50.246;14.320;2023-09-19T16:40:01;2.75;;;1.10;;
77350;SDS011;66420;50.246;14.320;2023-09-19T16:42:48;2.33;;;1.10;;
77350;SDS011;66420;50.246;14.320;2023-09-19T16:45:33;2.63;;;1.23;;
77350;SDS011;66420;50.246;14.320;2023-09-19T16:48:18;3.85;;;1.30;;
77350;SDS011;66420;50.246;14.320;2023-09-19T16:51:11;3.75;;;1.30;;
77350;SDS011;66420;50.246;14.320;2023-09-19T16:53:57;3.45;;;1.20;;
77350;SDS011;66420;50.246;14.320;2023-09-19T16:56:42;4.97;;;1.83;;
77350;SDS011;66420;50.246;14.320;2023-09-19T16:59:26;3.22;;;1.02;;
77350;SDS011;66420;50.246;14.320;2023-09-19T17:02:11;2.95;;;1.35;;
77350;SDS011;66420;50.246;14.320;2023-09-19T17:04:56;3.78;;;1.30;;
77350;SDS011;66420;50.246;14.320;2023-09-19T17:07:41;5.65;;;1.77;;
77350;SDS011;66420;50.246;14.320;2023-09-19T17:10:29;7.32;;;1.70;;
77350;SDS011;66420;50.246;14.320;2023-09-19T17:13:18;3.50;;;1.27;;